createdAt,value
2023-01-20T00:02:19.888Z,22.30
2023-01-20T00:07:21.627Z,35.70
2023-01-20T00:12:25.388Z,21.70
2023-01-20T00:17:29.057Z,20.50
2023-01-20T00:22:31.191Z,29.50
2023-01-20T00:27:33.125Z,24.50
2023-01-20T00:32:45.409Z,23.80
2023-01-20T00:37:47.261Z,25.70
2023-01-20T00:42:49.193Z,34.70
2023-01-20T00:47:50.940Z,24.10
2023-01-20T00:52:52.724Z,22.10
2023-01-20T00:57:54.447Z,27.00
2023-01-20T01:02:56.341Z,19.40
2023-01-20T01:07:58.061Z,17.20
2023-01-20T01:13:03.025Z,40.90
2023-01-20T01:18:05.294Z,32.30
2023-01-20T01:23:07.088Z,23.60
2023-01-20T01:28:08.823Z,25.70
2023-01-20T01:33:10.608Z,25.20
2023-01-20T01:38:12.333Z,22.80
2023-01-20T01:43:21.562Z,53.50
2023-01-20T01:48:45.417Z,42.40
2023-01-20T01:53:53.833Z,21.70
2023-01-20T01:58:59.921Z,20.50
2023-01-20T02:04:02.499Z,20.50
2023-01-20T02:09:05.001Z,20.10
2023-01-20T02:14:08.528Z,40.50
2023-01-20T02:19:58.614Z,29.20
2023-01-20T02:25:16.213Z,23.70
2023-01-20T02:30:39.497Z,24.10
2023-01-20T02:35:56.516Z,20.40
2023-01-20T02:41:04.388Z,21.00
2023-01-20T02:46:15.901Z,60.20
2023-01-20T02:51:24.409Z,65.90
2023-01-20T02:56:29.607Z,101.60
2023-01-20T03:01:39.836Z,71.10
2023-01-20T03:06:52.535Z,48.60
2023-01-20T03:12:16.531Z,67.00
2023-01-20T03:17:22.646Z,36.20
2023-01-20T03:22:24.615Z,34.40
2023-01-20T03:27:26.997Z,28.90
2023-01-20T03:32:29.828Z,30.10
2023-01-20T03:37:31.729Z,28.30
2023-01-20T03:43:10.985Z,82.60
2023-01-20T03:48:31.537Z,49.60
2023-01-20T03:53:47.627Z,23.40
2023-01-20T03:58:54.070Z,16.40
2023-01-20T04:03:57.350Z,28.80
2023-01-20T04:09:15.400Z,73.00
2023-01-20T04:14:17.285Z,37.40
2023-01-20T04:19:19.032Z,44.30
2023-01-20T04:24:33.222Z,46.50
2023-01-20T04:29:34.892Z,71.90
2023-01-20T04:34:36.683Z,35.70
2023-01-20T04:39:38.320Z,30.50
2023-01-20T04:44:40.081Z,27.20
2023-01-20T04:49:41.863Z,19.20
2023-01-20T04:54:43.675Z,30.10
2023-01-20T04:59:45.406Z,22.80
2023-01-20T05:04:47.366Z,22.30
2023-01-20T05:09:49.069Z,21.80
2023-01-20T05:14:50.880Z,15.10
2023-01-20T05:19:52.632Z,38.60
2023-01-20T05:24:54.343Z,38.40
2023-01-20T05:29:56.095Z,31.00
2023-01-20T05:34:57.781Z,27.30
2023-01-20T05:39:59.461Z,21.80
2023-01-20T05:45:01.139Z,49.70
2023-01-20T05:50:04.756Z,31.10
2023-01-20T05:55:06.774Z,22.40
2023-01-20T06:00:09.461Z,17.60
2023-01-20T06:05:11.185Z,39.20
2023-01-20T06:10:13.104Z,23.30
2023-01-20T06:15:15.097Z,24.60
2023-01-20T06:20:17.860Z,27.40
2023-01-20T06:25:19.844Z,26.10
2023-01-20T06:30:21.553Z,26.90
2023-01-20T06:35:24.274Z,48.80
2023-01-20T06:40:25.961Z,33.90
2023-01-20T06:45:28.783Z,30.80
2023-01-20T06:50:30.482Z,33.10
2023-01-20T06:55:32.153Z,47.40
2023-01-20T07:00:33.828Z,62.90
2023-01-20T07:05:35.659Z,93.10
2023-01-20T07:10:37.967Z,69.70
2023-01-20T07:15:39.732Z,83.80
2023-01-20T07:20:43.362Z,30.00
2023-01-20T07:25:45.270Z,63.50
2023-01-20T07:30:46.981Z,30.10
2023-01-20T07:35:54.279Z,34.70
2023-01-20T07:41:01.671Z,39.80
2023-01-20T07:46:05.162Z,60.90
2023-01-20T07:51:09.761Z,28.90
2023-01-20T07:56:14.596Z,33.00
2023-01-20T08:01:19.983Z,36.70
2023-01-20T08:06:25.360Z,30.60
2023-01-20T08:11:27.075Z,22.30
2023-01-20T08:16:28.809Z,24.20
2023-01-20T08:21:32.165Z,22.40
2023-01-20T08:26:34.229Z,20.30
2023-01-20T08:31:36.727Z,26.00
2023-01-20T08:36:41.141Z,22.60
2023-01-20T08:41:44.379Z,24.30
2023-01-20T08:46:46.416Z,34.40
2023-01-20T08:51:48.365Z,29.50
2023-01-20T08:56:52.133Z,18.50
2023-01-20T09:01:53.822Z,31.40
2023-01-20T09:06:55.648Z,39.90
2023-01-20T09:11:57.568Z,37.00
2023-01-20T09:17:00.558Z,26.80
2023-01-20T09:22:03.472Z,34.50
2023-01-20T09:27:05.169Z,34.00
2023-01-20T09:32:13.055Z,25.40
2023-01-20T09:37:33.397Z,22.10
2023-01-20T09:43:04.181Z,11.20
2023-01-20T09:48:47.035Z,21.30
2023-01-20T09:59:14.442Z,21.70
2023-01-20T10:04:24.470Z,24.30
2023-01-20T10:09:33.856Z,35.30
2023-01-20T10:14:44.797Z,19.10
2023-01-20T10:19:54.546Z,24.80
2023-01-20T10:25:06.774Z,24.90
2023-01-20T10:30:15.423Z,22.90
2023-01-20T10:35:26.904Z,14.90
2023-01-20T10:40:55.678Z,24.50
2023-01-20T10:46:03.835Z,18.30
2023-01-20T10:51:51.166Z,23.90
2023-01-20T10:56:56.747Z,19.10
2023-01-20T11:02:11.999Z,15.30
2023-01-20T11:07:19.014Z,29.60
2023-01-20T11:12:27.126Z,21.90
2023-01-20T11:17:29.108Z,25.50
2023-01-20T11:22:34.684Z,15.30
2023-01-20T11:27:46.543Z,17.50
2023-01-20T11:33:17.528Z,22.70
2023-01-20T11:38:28.622Z,14.30
2023-01-20T11:48:33.327Z,20.70
2023-01-20T11:53:35.545Z,18.20
2023-01-20T11:58:57.513Z,19.00
2023-01-20T12:04:24.262Z,18.20
2023-01-20T12:09:34.187Z,21.90
2023-01-20T12:14:47.255Z,10.30
2023-01-20T12:20:17.743Z,10.50
2023-01-20T12:25:27.559Z,14.00
2023-01-20T12:30:39.277Z,22.40
2023-01-20T12:35:52.240Z,8.80
2023-01-20T12:40:55.730Z,15.10
2023-01-20T12:46:26.151Z,17.30
2023-01-20T12:51:30.864Z,13.20
2023-01-20T13:02:27.582Z,14.20
2023-01-20T13:07:46.464Z,13.30
2023-01-20T13:13:04.562Z,14.30
2023-01-20T13:18:31.142Z,8.50
2023-01-20T13:23:37.742Z,18.80
2023-01-20T13:28:54.123Z,16.40
2023-01-20T13:34:34.919Z,23.30
2023-01-20T13:39:46.380Z,37.30
2023-01-20T13:45:19.561Z,21.60
2023-01-20T13:50:35.800Z,10.10
2023-01-20T13:55:47.192Z,16.90
2023-01-20T14:01:00.277Z,20.10
2023-01-20T14:06:06.906Z,9.70
2023-01-20T14:11:18.961Z,19.40
2023-01-20T14:16:37.661Z,22.40
2023-01-20T14:21:41.674Z,25.60
2023-01-20T14:26:43.455Z,24.10
2023-01-20T14:31:46.177Z,25.10
2023-01-20T14:36:48.880Z,24.00
2023-01-20T14:41:52.008Z,27.10
2023-01-20T14:46:56.874Z,17.60
2023-01-20T14:57:12.762Z,33.10
2023-01-20T15:02:28.296Z,33.30
2023-01-20T15:07:30.251Z,21.50
2023-01-20T15:12:47.308Z,25.40
2023-01-20T15:18:21.485Z,25.50
2023-01-20T15:23:31.704Z,25.50
2023-01-20T15:28:41.404Z,15.30
2023-01-20T15:33:44.007Z,20.40
2023-01-20T15:38:46.327Z,20.20
2023-01-20T15:43:49.344Z,23.40
2023-01-20T15:48:51.117Z,20.40
2023-01-20T15:53:52.948Z,23.40
2023-01-20T15:58:55.561Z,16.30
2023-01-20T16:03:58.578Z,22.80
2023-01-20T16:09:01.793Z,17.70
2023-01-20T16:14:03.419Z,20.90
2023-01-20T16:19:06.779Z,25.70
2023-01-20T16:24:08.526Z,15.00
2023-01-20T16:29:10.210Z,31.40
2023-01-20T16:34:11.924Z,19.00
2023-01-20T16:39:13.715Z,20.40
2023-01-20T16:44:18.051Z,18.30
2023-01-20T16:49:22.697Z,20.80
2023-01-20T16:54:24.579Z,9.70
2023-01-20T16:59:26.480Z,19.40
2023-01-20T17:04:29.822Z,6.10
2023-01-20T17:09:31.668Z,17.10
2023-01-20T17:14:33.403Z,17.10
2023-01-20T17:19:35.132Z,18.20
2023-01-20T17:24:39.110Z,22.30
2023-01-20T17:29:40.983Z,21.30
2023-01-20T17:34:46.088Z,22.80
2023-01-20T17:39:47.889Z,18.60
2023-01-20T17:45:02.284Z,12.60
2023-01-20T17:50:04.689Z,17.50
2023-01-20T17:55:07.063Z,26.60
2023-01-20T18:00:10.034Z,12.20
2023-01-20T18:05:11.773Z,30.70
2023-01-20T18:10:13.723Z,30.40
2023-01-20T18:15:15.764Z,33.10
2023-01-20T18:20:19.213Z,26.80
2023-01-20T18:25:20.905Z,21.50
2023-01-20T18:30:22.584Z,24.40
2023-01-20T18:35:25.453Z,27.40
2023-01-20T18:40:27.955Z,27.30
2023-01-20T18:45:29.576Z,22.70
2023-01-20T18:50:31.200Z,16.40
2023-01-20T18:55:32.904Z,14.80
2023-01-20T19:00:34.726Z,12.90
2023-01-20T19:05:36.714Z,20.00
2023-01-20T19:10:38.584Z,16.00
2023-01-20T19:15:40.716Z,21.10
2023-01-20T19:20:42.381Z,17.50
2023-01-20T19:25:44.353Z,30.20
2023-01-20T19:30:46.267Z,13.60
2023-01-20T19:35:48.015Z,14.90
2023-01-20T19:40:49.667Z,20.90
2023-01-20T19:45:51.298Z,14.30
2023-01-20T19:50:53.132Z,21.80
2023-01-20T19:56:01.763Z,19.70
2023-01-20T20:01:13.141Z,16.70
2023-01-20T20:06:28.731Z,14.70
2023-01-20T20:11:31.765Z,14.30
2023-01-20T20:16:36.289Z,16.30
2023-01-20T20:21:38.036Z,15.80
2023-01-20T20:26:40.935Z,10.60
2023-01-20T20:31:43.337Z,22.30
2023-01-20T20:36:46.027Z,17.50
2023-01-20T20:41:48.464Z,16.10
2023-01-20T20:46:50.504Z,23.80
2023-01-20T20:51:52.770Z,16.70
2023-01-20T20:56:54.919Z,15.20
2023-01-20T21:01:56.698Z,21.80
2023-01-20T21:06:58.576Z,18.70
2023-01-20T21:12:00.776Z,12.90
2023-01-20T21:17:03.960Z,14.20
2023-01-20T21:22:06.085Z,18.90
2023-01-20T21:27:07.935Z,19.20
2023-01-20T21:32:09.830Z,18.20
2023-01-20T21:37:11.519Z,15.00
2023-01-20T21:42:13.176Z,16.00
2023-01-20T21:47:20.422Z,17.20
2023-01-20T21:52:45.205Z,26.30
2023-01-20T21:57:51.065Z,16.40
2023-01-20T22:02:53.354Z,18.30
2023-01-20T22:07:55.140Z,17.20
2023-01-20T22:12:57.275Z,15.90
2023-01-20T22:17:59.195Z,12.40
2023-01-20T22:23:01.036Z,13.40
2023-01-20T22:28:02.785Z,12.80
2023-01-20T22:33:05.344Z,13.20
2023-01-20T22:38:07.396Z,9.40
2023-01-20T22:43:09.038Z,16.20
2023-01-20T22:48:10.698Z,7.30
2023-01-20T22:53:12.408Z,13.40
2023-01-20T22:58:16.869Z,16.70
2023-01-20T23:03:19.626Z,12.00
2023-01-20T23:08:21.380Z,9.50
2023-01-20T23:13:23.654Z,8.60
2023-01-20T23:18:25.606Z,11.00
2023-01-20T23:23:28.262Z,13.00
2023-01-20T23:28:30.530Z,14.50
2023-01-20T23:33:32.987Z,10.40
2023-01-20T23:38:35.041Z,15.30
2023-01-20T23:43:36.726Z,11.00
2023-01-20T23:48:39.005Z,9.30
2023-01-20T23:53:41.329Z,11.20
2023-01-20T23:58:44.228Z,6.60
